createdAt,value
2022-10-15T06:19:03.226Z,89.08
2022-10-15T06:21:11.312Z,89.17
2022-10-15T06:26:10.414Z,89.20
2022-10-15T06:31:10.249Z,89.61
2022-10-15T06:36:10.868Z,88.69
2022-10-15T06:41:10.226Z,88.71
2022-10-15T06:46:10.809Z,88.50
2022-10-15T06:51:10.532Z,88.56
2022-10-15T06:56:10.253Z,88.44
2022-10-15T07:01:10.904Z,88.52
2022-10-15T07:06:10.296Z,88.44
2022-10-15T07:11:10.344Z,88.30
2022-10-15T07:16:11.595Z,88.22
2022-10-15T07:26:10.325Z,87.99
2022-10-15T07:31:10.346Z,87.73
2022-10-15T07:36:10.979Z,87.84
2022-10-15T07:41:10.498Z,87.63
2022-10-15T07:46:10.436Z,87.39
2022-10-15T07:51:10.637Z,87.31
2022-10-15T07:56:11.345Z,87.45
2022-10-15T08:01:11.612Z,87.44
2022-10-15T08:06:10.415Z,87.00
2022-10-15T08:11:13.439Z,87.07
2022-10-15T08:16:12.679Z,86.40
2022-10-15T08:21:11.007Z,86.77
2022-10-15T08:26:10.486Z,85.34
2022-10-15T08:31:10.545Z,84.10
2022-10-15T08:36:10.449Z,83.22
2022-10-15T08:41:18.750Z,82.75
2022-10-15T08:51:17.427Z,83.94
2022-10-15T08:56:18.143Z,83.75
2022-10-15T09:01:27.012Z,83.93
2022-10-15T09:06:22.955Z,83.38
2022-10-15T09:11:20.416Z,83.75
2022-10-15T09:16:13.855Z,83.41
2022-10-15T09:21:12.316Z,82.40
2022-10-15T09:26:11.611Z,81.63
2022-10-15T09:31:14.023Z,82.46
2022-10-15T09:36:30.511Z,82.95
2022-10-15T09:41:20.570Z,84.38
2022-10-15T09:46:11.076Z,84.83
2022-10-15T09:51:21.021Z,86.81
2022-10-15T09:56:16.617Z,86.78
2022-10-15T10:01:21.965Z,87.46
2022-10-15T10:16:12.413Z,86.39
2022-10-15T10:21:23.229Z,88.90
2022-10-15T10:26:11.219Z,87.52
2022-10-15T10:31:11.441Z,87.25
2022-10-15T10:36:30.642Z,88.05
2022-10-15T10:41:11.168Z,87.11
2022-10-15T10:46:11.782Z,87.69
2022-10-15T10:51:16.852Z,87.34
2022-10-15T10:56:11.033Z,87.71
2022-10-15T11:01:13.351Z,87.87
2022-10-15T11:06:10.780Z,88.28
2022-10-15T11:11:19.918Z,88.20
2022-10-15T11:16:20.783Z,88.56
2022-10-15T11:21:26.438Z,89.55
2022-10-15T11:26:34.107Z,88.90
2022-10-15T11:31:18.284Z,88.76
2022-10-15T11:36:30.773Z,89.44
2022-10-15T11:41:28.960Z,89.36
2022-10-15T11:46:26.380Z,89.63
2022-10-15T11:51:23.329Z,89.81
2022-10-15T11:56:19.893Z,89.37
2022-10-15T12:01:17.011Z,90.03
2022-10-15T12:06:16.022Z,90.26
2022-10-15T12:11:27.566Z,89.06
2022-10-15T12:16:16.878Z,90.34
2022-10-15T12:21:30.098Z,88.99
2022-10-15T12:26:24.199Z,89.01
2022-10-15T12:31:11.020Z,90.07
2022-10-15T12:36:18.467Z,90.10
2022-10-15T12:41:13.329Z,89.78
2022-10-15T12:46:12.577Z,89.87
2022-10-15T12:51:20.990Z,89.52
2022-10-15T12:56:21.221Z,89.29
2022-10-15T13:01:14.889Z,89.32
2022-10-15T13:06:21.197Z,89.02
2022-10-15T13:11:23.002Z,87.50
2022-10-15T13:16:12.782Z,87.96
2022-10-15T13:21:13.693Z,86.91
2022-10-15T13:26:22.936Z,86.73
2022-10-15T13:31:22.506Z,86.72
2022-10-15T13:36:19.060Z,86.88
2022-10-15T13:41:11.219Z,87.49
2022-10-15T13:46:14.491Z,87.84
2022-10-15T13:51:11.449Z,87.26
2022-10-15T13:56:21.155Z,87.78
2022-10-15T14:01:17.374Z,87.35
2022-10-15T14:06:22.404Z,87.18
2022-10-15T14:11:12.506Z,86.49
2022-10-15T14:16:14.374Z,85.58
2022-10-15T14:21:13.853Z,84.25
2022-10-15T14:26:12.310Z,81.47
2022-10-15T14:31:27.677Z,80.59
2022-10-15T14:36:20.728Z,80.09
2022-10-15T14:41:24.622Z,81.12
2022-10-15T14:46:18.680Z,80.64
2022-10-15T14:51:23.833Z,80.98
2022-10-15T14:56:19.360Z,81.01
2022-10-15T15:01:15.989Z,81.07
2022-10-15T15:06:12.713Z,81.96
2022-10-15T15:11:16.670Z,80.77
2022-10-15T15:16:13.359Z,80.69
2022-10-15T15:21:16.320Z,78.56
2022-10-15T15:26:11.391Z,77.26
2022-10-15T15:31:16.873Z,76.06
2022-10-15T15:36:15.460Z,77.36
2022-10-15T15:41:14.405Z,77.54
2022-10-15T15:46:11.741Z,78.39
2022-10-15T15:51:23.538Z,77.92
2022-10-15T15:56:11.476Z,78.60
2022-10-15T16:01:12.003Z,78.75
2022-10-15T16:06:11.532Z,77.96
2022-10-15T16:11:11.613Z,77.88
2022-10-15T16:16:11.725Z,78.83
2022-10-15T16:21:11.548Z,79.02
2022-10-15T16:26:11.528Z,79.41
2022-10-15T16:31:14.904Z,79.80
2022-10-15T16:36:11.948Z,80.46
2022-10-15T16:41:12.922Z,80.24
2022-10-15T16:46:12.035Z,80.65
2022-10-15T16:51:14.528Z,80.88
2022-10-15T16:56:15.453Z,82.33
2022-10-15T17:01:15.099Z,82.64
2022-10-15T17:06:14.674Z,83.10
2022-10-15T17:11:15.286Z,83.16
2022-10-15T17:16:15.211Z,83.45
2022-10-15T17:21:14.317Z,82.52
2022-10-15T17:26:14.934Z,82.22
2022-10-15T17:31:14.555Z,82.75
2022-10-15T17:36:15.227Z,83.65
2022-10-15T17:41:14.882Z,83.23
2022-10-15T17:46:14.316Z,83.79
2022-10-15T17:51:14.354Z,83.65
2022-10-15T17:56:14.585Z,83.65
2022-10-15T18:01:27.890Z,83.34
2022-10-15T18:06:13.865Z,82.98
2022-10-15T18:11:15.903Z,82.42
2022-10-15T18:16:11.789Z,82.07
2022-10-15T18:21:14.379Z,81.54
2022-10-15T18:26:19.547Z,81.54
2022-10-15T18:31:12.205Z,81.78
2022-10-15T18:36:16.445Z,81.98
2022-10-15T18:41:17.216Z,82.09
2022-10-15T18:46:11.863Z,81.65
2022-10-15T18:51:12.353Z,81.49
2022-10-15T18:56:12.028Z,81.01
2022-10-15T19:01:24.629Z,81.35
2022-10-15T19:06:11.883Z,81.01
2022-10-15T19:11:11.964Z,81.35
2022-10-15T19:16:12.039Z,81.15
2022-10-15T19:21:11.941Z,81.70
2022-10-15T19:26:12.716Z,80.94
2022-10-15T19:31:19.224Z,81.20
2022-10-15T19:36:17.755Z,81.19
2022-10-15T19:41:12.060Z,81.14
2022-10-15T19:46:12.378Z,81.14
2022-10-15T19:51:12.070Z,81.12
2022-10-15T19:56:12.040Z,80.96
2022-10-15T20:01:12.567Z,81.23
2022-10-15T20:06:12.047Z,80.97
2022-10-15T20:11:12.065Z,80.65
2022-10-15T20:16:12.418Z,79.99
2022-10-15T20:21:14.178Z,79.55
2022-10-15T20:26:14.022Z,78.15
2022-10-15T20:31:15.309Z,78.48
2022-10-15T20:36:17.138Z,77.80
2022-10-15T20:41:14.991Z,77.95
2022-10-15T20:46:18.073Z,78.45
2022-10-15T20:51:15.722Z,78.75
2022-10-15T20:56:12.797Z,78.42
2022-10-15T21:01:13.000Z,78.42
2022-10-15T21:06:12.158Z,78.22
2022-10-15T21:11:12.185Z,77.89
2022-10-15T21:16:12.427Z,77.42
2022-10-15T21:21:13.480Z,77.66
2022-10-15T21:26:14.753Z,77.04
2022-10-15T21:31:14.791Z,76.46
2022-10-15T21:36:13.739Z,76.65
2022-10-15T21:41:12.329Z,76.45
2022-10-15T21:46:13.380Z,76.30
2022-10-15T21:51:15.509Z,76.65
2022-10-15T21:56:13.047Z,76.17
2022-10-15T22:01:19.168Z,75.21
2022-10-15T22:06:12.816Z,75.90
2022-10-15T22:11:16.907Z,76.55
2022-10-15T22:16:13.837Z,75.97
2022-10-15T22:21:15.396Z,75.91
2022-10-15T22:26:14.015Z,75.99
2022-10-15T22:31:15.363Z,77.05
2022-10-15T22:36:15.068Z,77.17
2022-10-15T22:41:13.307Z,77.46
2022-10-15T22:46:13.072Z,77.61
2022-10-15T22:51:12.553Z,77.52
2022-10-15T22:56:15.322Z,77.94
2022-10-15T23:01:16.231Z,78.05
2022-10-15T23:06:13.035Z,78.32
2022-10-15T23:11:15.302Z,78.54
2022-10-15T23:16:22.366Z,78.74
2022-10-15T23:21:15.013Z,78.97
2022-10-15T23:26:14.937Z,79.17
2022-10-15T23:31:14.487Z,79.22
2022-10-15T23:36:13.328Z,79.44
2022-10-15T23:41:12.543Z,79.57
2022-10-15T23:46:13.954Z,79.63
2022-10-15T23:51:16.251Z,79.89
2022-10-15T23:56:12.833Z,80.36
